sensor_id;sensor_type;location;lat;lon;timestamp;pressure;altitude;pressure_sealevel;temperature
25514;BMP180;48128;54.242;10.280;2023-02-08T00:00:53;103629.00;;;-3.60
25514;BMP180;48128;54.242;10.280;2023-02-08T00:03:20;103609.00;;;-3.70
25514;BMP180;48128;54.242;10.280;2023-02-08T00:05:47;103627.00;;;-3.70
25514;BMP180;48128;54.242;10.280;2023-02-08T00:08:14;103628.00;;;-3.70
25514;BMP180;48128;54.242;10.280;2023-02-08T00:10:41;103626.00;;;-3.80
25514;BMP180;48128;54.242;10.280;2023-02-08T00:13:09;103609.00;;;-3.80
25514;BMP180;48128;54.242;10.280;2023-02-08T00:15:43;103628.00;;;-3.80
25514;BMP180;48128;54.242;10.280;2023-02-08T00:18:11;103632.00;;;-3.80
25514;BMP180;48128;54.242;10.280;2023-02-08T00:20:38;103625.00;;;-3.80
25514;BMP180;48128;54.242;10.280;2023-02-08T00:23:06;103614.00;;;-3.80
25514;BMP180;48128;54.242;10.280;2023-02-08T00:25:33;103603.00;;;-3.80
25514;BMP180;48128;54.242;10.280;2023-02-08T00:28:00;103618.00;;;-3.90
25514;BMP180;48128;54.242;10.280;2023-02-08T00:30:30;103639.00;;;-3.90
25514;BMP180;48128;54.242;10.280;2023-02-08T00:32:57;103629.00;;;-3.90
25514;BMP180;48128;54.242;10.280;2023-02-08T00:35:23;103625.00;;;-3.90
25514;BMP180;48128;54.242;10.280;2023-02-08T00:37:50;103631.00;;;-3.90
25514;BMP180;48128;54.242;10.280;2023-02-08T00:40:17;103618.00;;;-3.90
25514;BMP180;48128;54.242;10.280;2023-02-08T00:42:44;103618.00;;;-3.90
25514;BMP180;48128;54.242;10.280;2023-02-08T00:45:11;103626.00;;;-3.90
25514;BMP180;48128;54.242;10.280;2023-02-08T00:47:38;103636.00;;;-4.00
25514;BMP180;48128;54.242;10.280;2023-02-08T00:50:05;103620.00;;;-4.00
25514;BMP180;48128;54.242;10.280;2023-02-08T00:52:32;103617.00;;;-4.00
25514;BMP180;48128;54.242;10.280;2023-02-08T00:54:59;103637.00;;;-4.00
25514;BMP180;48128;54.242;10.280;2023-02-08T00:57:25;103636.00;;;-4.00
25514;BMP180;48128;54.242;10.280;2023-02-08T00:59:52;103638.00;;;-4.00
25514;BMP180;48128;54.242;10.280;2023-02-08T01:02:19;103636.00;;;-4.00
25514;BMP180;48128;54.242;10.280;2023-02-08T01:04:46;103641.00;;;-4.10
25514;BMP180;48128;54.242;10.280;2023-02-08T01:07:13;103630.00;;;-4.10
25514;BMP180;48128;54.242;10.280;2023-02-08T01:09:39;103629.00;;;-4.10
25514;BMP180;48128;54.242;10.280;2023-02-08T01:12:06;103624.00;;;-4.10
25514;BMP180;48128;54.242;10.280;2023-02-08T01:14:33;103620.00;;;-4.10
25514;BMP180;48128;54.242;10.280;2023-02-08T01:17:00;103620.00;;;-4.10
25514;BMP180;48128;54.242;10.280;2023-02-08T01:19:27;103621.00;;;-4.20
25514;BMP180;48128;54.242;10.280;2023-02-08T01:21:53;103632.00;;;-4.20
25514;BMP180;48128;54.242;10.280;2023-02-08T01:24:21;103639.00;;;-4.10
25514;BMP180;48128;54.242;10.280;2023-02-08T01:26:48;103628.00;;;-4.20
25514;BMP180;48128;54.242;10.280;2023-02-08T01:29:14;103626.00;;;-4.20
25514;BMP180;48128;54.242;10.280;2023-02-08T01:31:42;103623.00;;;-4.20
25514;BMP180;48128;54.242;10.280;2023-02-08T01:34:10;103629.00;;;-4.20
25514;BMP180;48128;54.242;10.280;2023-02-08T01:36:37;103614.00;;;-4.20
25514;BMP180;48128;54.242;10.280;2023-02-08T01:39:05;103615.00;;;-4.20
25514;BMP180;48128;54.242;10.280;2023-02-08T01:41:41;103617.00;;;-4.20
25514;BMP180;48128;54.242;10.280;2023-02-08T01:46:47;103601.00;;;-4.30
25514;BMP180;48128;54.242;10.280;2023-02-08T01:49:27;103607.00;;;-4.30
25514;BMP180;48128;54.242;10.280;2023-02-08T01:52:13;103610.00;;;-4.30
25514;BMP180;48128;54.242;10.280;2023-02-08T01:54:45;103599.00;;;-4.30
25514;BMP180;48128;54.242;10.280;2023-02-08T01:57:13;103602.00;;;-4.30
25514;BMP180;48128;54.242;10.280;2023-02-08T02:00:02;103589.00;;;-4.30
25514;BMP180;48128;54.242;10.280;2023-02-08T02:02:30;103591.00;;;-4.30
25514;BMP180;48128;54.242;10.280;2023-02-08T02:04:56;103591.00;;;-4.40
25514;BMP180;48128;54.242;10.280;2023-02-08T02:07:25;103587.00;;;-4.40
25514;BMP180;48128;54.242;10.280;2023-02-08T02:10:20;103601.00;;;-4.40
25514;BMP180;48128;54.242;10.280;2023-02-08T02:12:48;103602.00;;;-4.40
25514;BMP180;48128;54.242;10.280;2023-02-08T02:15:15;103593.00;;;-4.40
25514;BMP180;48128;54.242;10.280;2023-02-08T02:17:42;103593.00;;;-4.40
25514;BMP180;48128;54.242;10.280;2023-02-08T02:34:44;103599.00;;;-4.60
25514;BMP180;48128;54.242;10.280;2023-02-08T02:40:16;103596.00;;;-4.50
25514;BMP180;48128;54.242;10.280;2023-02-08T02:54:17;103575.00;;;-4.70
25514;BMP180;48128;54.242;10.280;2023-02-08T02:56:47;103593.00;;;-4.70
25514;BMP180;48128;54.242;10.280;2023-02-08T02:59:15;103591.00;;;-4.70
25514;BMP180;48128;54.242;10.280;2023-02-08T03:01:43;103593.00;;;-4.70
25514;BMP180;48128;54.242;10.280;2023-02-08T03:07:15;103605.00;;;-4.70
25514;BMP180;48128;54.242;10.280;2023-02-08T03:15:19;103612.00;;;-4.80
25514;BMP180;48128;54.242;10.280;2023-02-08T03:18:11;103594.00;;;-4.80
25514;BMP180;48128;54.242;10.280;2023-02-08T03:21:01;103589.00;;;-4.80
25514;BMP180;48128;54.242;10.280;2023-02-08T03:31:35;103595.00;;;-4.70
25514;BMP180;48128;54.242;10.280;2023-02-08T03:36:54;103600.00;;;-4.80
25514;BMP180;48128;54.242;10.280;2023-02-08T03:39:27;103616.00;;;-4.70
25514;BMP180;48128;54.242;10.280;2023-02-08T03:41:57;103606.00;;;-4.70
25514;BMP180;48128;54.242;10.280;2023-02-08T03:44:33;103598.00;;;-4.70
25514;BMP180;48128;54.242;10.280;2023-02-08T03:47:08;103587.00;;;-4.60
25514;BMP180;48128;54.242;10.280;2023-02-08T03:49:38;103586.00;;;-4.60
25514;BMP180;48128;54.242;10.280;2023-02-08T03:52:06;103587.00;;;-4.50
25514;BMP180;48128;54.242;10.280;2023-02-08T03:54:37;103579.00;;;-4.40
25514;BMP180;48128;54.242;10.280;2023-02-08T03:57:17;103590.00;;;-4.40
25514;BMP180;48128;54.242;10.280;2023-02-08T04:00:01;103591.00;;;-4.30
25514;BMP180;48128;54.242;10.280;2023-02-08T04:02:30;103589.00;;;-4.30
25514;BMP180;48128;54.242;10.280;2023-02-08T04:04:58;103589.00;;;-4.30
25514;BMP180;48128;54.242;10.280;2023-02-08T04:07:26;103567.00;;;-4.30
25514;BMP180;48128;54.242;10.280;2023-02-08T04:09:53;103570.00;;;-4.20
25514;BMP180;48128;54.242;10.280;2023-02-08T04:12:19;103581.00;;;-4.20
25514;BMP180;48128;54.242;10.280;2023-02-08T04:14:46;103576.00;;;-4.20
25514;BMP180;48128;54.242;10.280;2023-02-08T04:17:13;103579.00;;;-4.20
25514;BMP180;48128;54.242;10.280;2023-02-08T04:19:40;103571.00;;;-4.20
25514;BMP180;48128;54.242;10.280;2023-02-08T04:22:07;103585.00;;;-4.10
25514;BMP180;48128;54.242;10.280;2023-02-08T04:24:34;103584.00;;;-4.10
25514;BMP180;48128;54.242;10.280;2023-02-08T04:27:01;103584.00;;;-4.00
25514;BMP180;48128;54.242;10.280;2023-02-08T04:29:31;103583.00;;;-4.00
25514;BMP180;48128;54.242;10.280;2023-02-08T04:31:58;103577.00;;;-4.00
25514;BMP180;48128;54.242;10.280;2023-02-08T04:34:25;103573.00;;;-3.80
25514;BMP180;48128;54.242;10.280;2023-02-08T04:36:52;103583.00;;;-3.80
25514;BMP180;48128;54.242;10.280;2023-02-08T04:39:19;103595.00;;;-3.70
25514;BMP180;48128;54.242;10.280;2023-02-08T04:41:46;103589.00;;;-3.70
25514;BMP180;48128;54.242;10.280;2023-02-08T04:44:13;103592.00;;;-3.70
25514;BMP180;48128;54.242;10.280;2023-02-08T04:46:40;103604.00;;;-3.70
25514;BMP180;48128;54.242;10.280;2023-02-08T04:49:07;103613.00;;;-3.60
25514;BMP180;48128;54.242;10.280;2023-02-08T04:51:34;103622.00;;;-3.70
25514;BMP180;48128;54.242;10.280;2023-02-08T04:54:01;103624.00;;;-3.70
25514;BMP180;48128;54.242;10.280;2023-02-08T04:56:28;103626.00;;;-3.80
25514;BMP180;48128;54.242;10.280;2023-02-08T04:58:55;103645.00;;;-3.80
25514;BMP180;48128;54.242;10.280;2023-02-08T05:01:22;103627.00;;;-3.80
25514;BMP180;48128;54.242;10.280;2023-02-08T05:03:49;103628.00;;;-3.80
25514;BMP180;48128;54.242;10.280;2023-02-08T05:06:16;103629.00;;;-3.80
25514;BMP180;48128;54.242;10.280;2023-02-08T05:08:43;103630.00;;;-3.90
25514;BMP180;48128;54.242;10.280;2023-02-08T05:11:10;103617.00;;;-4.00
25514;BMP180;48128;54.242;10.280;2023-02-08T05:13:36;103636.00;;;-4.00
25514;BMP180;48128;54.242;10.280;2023-02-08T05:16:03;103617.00;;;-4.10
25514;BMP180;48128;54.242;10.280;2023-02-08T05:18:30;103629.00;;;-4.10
25514;BMP180;48128;54.242;10.280;2023-02-08T05:20:59;103639.00;;;-4.10
25514;BMP180;48128;54.242;10.280;2023-02-08T05:23:26;103622.00;;;-4.10
25514;BMP180;48128;54.242;10.280;2023-02-08T05:25:53;103639.00;;;-4.20
25514;BMP180;48128;54.242;10.280;2023-02-08T05:28:20;103640.00;;;-4.20
25514;BMP180;48128;54.242;10.280;2023-02-08T05:30:47;103636.00;;;-4.20
25514;BMP180;48128;54.242;10.280;2023-02-08T05:33:15;103625.00;;;-4.20
25514;BMP180;48128;54.242;10.280;2023-02-08T05:35:43;103622.00;;;-4.30
25514;BMP180;48128;54.242;10.280;2023-02-08T05:38:11;103605.00;;;-4.40
25514;BMP180;48128;54.242;10.280;2023-02-08T05:40:38;103606.00;;;-4.40
25514;BMP180;48128;54.242;10.280;2023-02-08T05:43:05;103604.00;;;-4.40
25514;BMP180;48128;54.242;10.280;2023-02-08T05:45:32;103615.00;;;-4.40
25514;BMP180;48128;54.242;10.280;2023-02-08T05:47:59;103616.00;;;-4.50
25514;BMP180;48128;54.242;10.280;2023-02-08T05:50:26;103612.00;;;-4.50
25514;BMP180;48128;54.242;10.280;2023-02-08T05:52:53;103606.00;;;-4.50
25514;BMP180;48128;54.242;10.280;2023-02-08T05:55:20;103600.00;;;-4.50
25514;BMP180;48128;54.242;10.280;2023-02-08T05:57:47;103591.00;;;-4.60
25514;BMP180;48128;54.242;10.280;2023-02-08T06:00:14;103613.00;;;-4.60
25514;BMP180;48128;54.242;10.280;2023-02-08T06:02:41;103610.00;;;-4.60
25514;BMP180;48128;54.242;10.280;2023-02-08T06:05:08;103607.00;;;-4.60
25514;BMP180;48128;54.242;10.280;2023-02-08T06:07:35;103611.00;;;-4.60
25514;BMP180;48128;54.242;10.280;2023-02-08T06:10:02;103597.00;;;-4.70
25514;BMP180;48128;54.242;10.280;2023-02-08T06:12:29;103589.00;;;-4.70
25514;BMP180;48128;54.242;10.280;2023-02-08T06:14:56;103596.00;;;-4.70
25514;BMP180;48128;54.242;10.280;2023-02-08T06:17:23;103594.00;;;-4.70
25514;BMP180;48128;54.242;10.280;2023-02-08T06:19:50;103602.00;;;-4.70
25514;BMP180;48128;54.242;10.280;2023-02-08T06:22:17;103618.00;;;-4.70
25514;BMP180;48128;54.242;10.280;2023-02-08T06:24:44;103621.00;;;-4.70
25514;BMP180;48128;54.242;10.280;2023-02-08T06:27:11;103603.00;;;-4.80
25514;BMP180;48128;54.242;10.280;2023-02-08T06:29:38;103623.00;;;-4.80
25514;BMP180;48128;54.242;10.280;2023-02-08T06:32:05;103613.00;;;-4.80
25514;BMP180;48128;54.242;10.280;2023-02-08T06:34:32;103617.00;;;-4.80
25514;BMP180;48128;54.242;10.280;2023-02-08T06:36:59;103613.00;;;-4.90
25514;BMP180;48128;54.242;10.280;2023-02-08T06:39:27;103618.00;;;-4.90
25514;BMP180;48128;54.242;10.280;2023-02-08T06:41:55;103621.00;;;-5.00
25514;BMP180;48128;54.242;10.280;2023-02-08T06:44:22;103629.00;;;-5.00
25514;BMP180;48128;54.242;10.280;2023-02-08T06:46:49;103621.00;;;-5.00
25514;BMP180;48128;54.242;10.280;2023-02-08T06:49:17;103614.00;;;-5.00
25514;BMP180;48128;54.242;10.280;2023-02-08T06:51:44;103622.00;;;-5.00
25514;BMP180;48128;54.242;10.280;2023-02-08T06:54:11;103603.00;;;-5.00
25514;BMP180;48128;54.242;10.280;2023-02-08T06:56:40;103611.00;;;-5.00
25514;BMP180;48128;54.242;10.280;2023-02-08T06:59:08;103621.00;;;-5.00
25514;BMP180;48128;54.242;10.280;2023-02-08T07:01:34;103611.00;;;-5.10
25514;BMP180;48128;54.242;10.280;2023-02-08T07:04:01;103608.00;;;-5.10
25514;BMP180;48128;54.242;10.280;2023-02-08T07:06:28;103608.00;;;-5.00
25514;BMP180;48128;54.242;10.280;2023-02-08T07:08:55;103615.00;;;-5.00
25514;BMP180;48128;54.242;10.280;2023-02-08T07:11:25;103618.00;;;-5.00
25514;BMP180;48128;54.242;10.280;2023-02-08T07:13:52;103616.00;;;-5.00
25514;BMP180;48128;54.242;10.280;2023-02-08T07:16:20;103614.00;;;-5.00
25514;BMP180;48128;54.242;10.280;2023-02-08T07:18:47;103613.00;;;-5.00
25514;BMP180;48128;54.242;10.280;2023-02-08T07:21:14;103623.00;;;-5.00
25514;BMP180;48128;54.242;10.280;2023-02-08T07:23:41;103631.00;;;-5.00
25514;BMP180;48128;54.242;10.280;2023-02-08T07:26:10;103623.00;;;-5.00
25514;BMP180;48128;54.242;10.280;2023-02-08T07:28:37;103624.00;;;-5.00
25514;BMP180;48128;54.242;10.280;2023-02-08T07:31:06;103607.00;;;-5.00
25514;BMP180;48128;54.242;10.280;2023-02-08T07:33:33;103615.00;;;-5.00
25514;BMP180;48128;54.242;10.280;2023-02-08T07:36:00;103611.00;;;-4.90
25514;BMP180;48128;54.242;10.280;2023-02-08T07:38:28;103614.00;;;-4.90
25514;BMP180;48128;54.242;10.280;2023-02-08T07:41:07;103613.00;;;-4.90
25514;BMP180;48128;54.242;10.280;2023-02-08T07:43:36;103607.00;;;-4.90
25514;BMP180;48128;54.242;10.280;2023-02-08T07:46:17;103611.00;;;-4.90
25514;BMP180;48128;54.242;10.280;2023-02-08T07:48:44;103616.00;;;-4.80
25514;BMP180;48128;54.242;10.280;2023-02-08T07:51:11;103607.00;;;-4.80
25514;BMP180;48128;54.242;10.280;2023-02-08T07:53:38;103612.00;;;-4.80
25514;BMP180;48128;54.242;10.280;2023-02-08T07:56:05;103611.00;;;-4.70
25514;BMP180;48128;54.242;10.280;2023-02-08T07:58:32;103605.00;;;-4.70
25514;BMP180;48128;54.242;10.280;2023-02-08T08:00:59;103608.00;;;-4.60
25514;BMP180;48128;54.242;10.280;2023-02-08T08:03:41;103608.00;;;-4.60
25514;BMP180;48128;54.242;10.280;2023-02-08T08:06:08;103597.00;;;-4.50
25514;BMP180;48128;54.242;10.280;2023-02-08T08:08:35;103599.00;;;-4.30
25514;BMP180;48128;54.242;10.280;2023-02-08T08:11:02;103589.00;;;-4.20
25514;BMP180;48128;54.242;10.280;2023-02-08T08:13:29;103571.00;;;-4.00
25514;BMP180;48128;54.242;10.280;2023-02-08T08:15:56;103573.00;;;-4.00
25514;BMP180;48128;54.242;10.280;2023-02-08T08:18:24;103578.00;;;-3.90
25514;BMP180;48128;54.242;10.280;2023-02-08T08:20:51;103562.00;;;-3.80
25514;BMP180;48128;54.242;10.280;2023-02-08T08:23:17;103570.00;;;-3.70
25514;BMP180;48128;54.242;10.280;2023-02-08T08:25:45;103581.00;;;-3.60
25514;BMP180;48128;54.242;10.280;2023-02-08T08:28:12;103579.00;;;-3.60
25514;BMP180;48128;54.242;10.280;2023-02-08T08:30:42;103585.00;;;-3.50
25514;BMP180;48128;54.242;10.280;2023-02-08T08:33:11;103588.00;;;-3.50
25514;BMP180;48128;54.242;10.280;2023-02-08T08:35:39;103610.00;;;-3.40
25514;BMP180;48128;54.242;10.280;2023-02-08T08:38:08;103596.00;;;-3.30
25514;BMP180;48128;54.242;10.280;2023-02-08T08:40:35;103606.00;;;-3.30
25514;BMP180;48128;54.242;10.280;2023-02-08T08:43:02;103603.00;;;-3.20
25514;BMP180;48128;54.242;10.280;2023-02-08T08:45:28;103605.00;;;-3.20
25514;BMP180;48128;54.242;10.280;2023-02-08T08:47:55;103619.00;;;-3.20
25514;BMP180;48128;54.242;10.280;2023-02-08T08:50:22;103603.00;;;-3.10
25514;BMP180;48128;54.242;10.280;2023-02-08T08:52:49;103618.00;;;-3.00
25514;BMP180;48128;54.242;10.280;2023-02-08T08:55:16;103606.00;;;-2.90
25514;BMP180;48128;54.242;10.280;2023-02-08T08:57:43;103611.00;;;-2.80
25514;BMP180;48128;54.242;10.280;2023-02-08T09:00:10;103619.00;;;-2.70
25514;BMP180;48128;54.242;10.280;2023-02-08T09:02:38;103620.00;;;-2.70
25514;BMP180;48128;54.242;10.280;2023-02-08T09:05:05;103614.00;;;-2.60
25514;BMP180;48128;54.242;10.280;2023-02-08T09:07:33;103620.00;;;-2.50
25514;BMP180;48128;54.242;10.280;2023-02-08T09:10:01;103617.00;;;-2.40
25514;BMP180;48128;54.242;10.280;2023-02-08T09:12:28;103620.00;;;-2.30
25514;BMP180;48128;54.242;10.280;2023-02-08T09:14:55;103620.00;;;-2.20
25514;BMP180;48128;54.242;10.280;2023-02-08T09:17:22;103627.00;;;-2.10
25514;BMP180;48128;54.242;10.280;2023-02-08T09:19:48;103626.00;;;-2.10
25514;BMP180;48128;54.242;10.280;2023-02-08T09:22:16;103635.00;;;-2.00
25514;BMP180;48128;54.242;10.280;2023-02-08T09:24:43;103646.00;;;-1.90
25514;BMP180;48128;54.242;10.280;2023-02-08T09:27:09;103660.00;;;-1.80
25514;BMP180;48128;54.242;10.280;2023-02-08T09:29:36;103660.00;;;-1.70
25514;BMP180;48128;54.242;10.280;2023-02-08T09:32:03;103667.00;;;-1.60
25514;BMP180;48128;54.242;10.280;2023-02-08T09:34:30;103677.00;;;-1.50
25514;BMP180;48128;54.242;10.280;2023-02-08T09:36:57;103682.00;;;-1.40
25514;BMP180;48128;54.242;10.280;2023-02-08T09:39:24;103704.00;;;-1.30
25514;BMP180;48128;54.242;10.280;2023-02-08T09:47:27;103696.00;;;-0.90
25514;BMP180;48128;54.242;10.280;2023-02-08T09:50:12;103699.00;;;-0.80
25514;BMP180;48128;54.242;10.280;2023-02-08T09:52:46;103690.00;;;-0.70
25514;BMP180;48128;54.242;10.280;2023-02-08T09:57:47;103698.00;;;-0.40
25514;BMP180;48128;54.242;10.280;2023-02-08T10:00:17;103684.00;;;-0.30
25514;BMP180;48128;54.242;10.280;2023-02-08T10:02:46;103701.00;;;-0.30
25514;BMP180;48128;54.242;10.280;2023-02-08T10:05:19;103701.00;;;-0.20
25514;BMP180;48128;54.242;10.280;2023-02-08T10:07:46;103696.00;;;-0.10
25514;BMP180;48128;54.242;10.280;2023-02-08T10:10:20;103704.00;;;0.10
25514;BMP180;48128;54.242;10.280;2023-02-08T10:13:01;103709.00;;;0.10
25514;BMP180;48128;54.242;10.280;2023-02-08T10:15:56;103721.00;;;0.30
25514;BMP180;48128;54.242;10.280;2023-02-08T10:34:48;103731.00;;;1.30
25514;BMP180;48128;54.242;10.280;2023-02-08T10:37:18;103721.00;;;1.40
25514;BMP180;48128;54.242;10.280;2023-02-08T10:39:45;103713.00;;;1.50
25514;BMP180;48128;54.242;10.280;2023-02-08T10:42:16;103712.00;;;1.70
25514;BMP180;48128;54.242;10.280;2023-02-08T10:47:54;103722.00;;;1.90
25514;BMP180;48128;54.242;10.280;2023-02-08T10:50:28;103719.00;;;2.00
25514;BMP180;48128;54.242;10.280;2023-02-08T10:52:59;103717.00;;;2.10
25514;BMP180;48128;54.242;10.280;2023-02-08T10:55:26;103712.00;;;2.20
25514;BMP180;48128;54.242;10.280;2023-02-08T10:57:56;103709.00;;;2.30
25514;BMP180;48128;54.242;10.280;2023-02-08T11:00:37;103707.00;;;2.40
25514;BMP180;48128;54.242;10.280;2023-02-08T11:03:22;103715.00;;;2.50
25514;BMP180;48128;54.242;10.280;2023-02-08T11:05:50;103702.00;;;2.60
25514;BMP180;48128;54.242;10.280;2023-02-08T11:08:26;103702.00;;;2.80
25514;BMP180;48128;54.242;10.280;2023-02-08T11:13:37;103723.00;;;3.00
25514;BMP180;48128;54.242;10.280;2023-02-08T11:16:26;103719.00;;;3.10
25514;BMP180;48128;54.242;10.280;2023-02-08T11:18:55;103730.00;;;3.20
25514;BMP180;48128;54.242;10.280;2023-02-08T11:21:29;103727.00;;;3.40
25514;BMP180;48128;54.242;10.280;2023-02-08T11:24:16;103721.00;;;3.50
25514;BMP180;48128;54.242;10.280;2023-02-08T11:26:48;103719.00;;;3.60
25514;BMP180;48128;54.242;10.280;2023-02-08T11:29:17;103704.00;;;3.70
25514;BMP180;48128;54.242;10.280;2023-02-08T11:34:27;103719.00;;;3.70
25514;BMP180;48128;54.242;10.280;2023-02-08T11:36:55;103724.00;;;3.80
25514;BMP180;48128;54.242;10.280;2023-02-08T11:39:28;103710.00;;;3.80
25514;BMP180;48128;54.242;10.280;2023-02-08T11:41:58;103722.00;;;3.90
25514;BMP180;48128;54.242;10.280;2023-02-08T11:44:29;103711.00;;;3.90
25514;BMP180;48128;54.242;10.280;2023-02-08T11:47:01;103701.00;;;3.90
25514;BMP180;48128;54.242;10.280;2023-02-08T11:49:40;103692.00;;;4.00
25514;BMP180;48128;54.242;10.280;2023-02-08T11:54:46;103732.00;;;4.30
25514;BMP180;48128;54.242;10.280;2023-02-08T11:57:18;103735.00;;;4.30
25514;BMP180;48128;54.242;10.280;2023-02-08T11:59:47;103736.00;;;4.30
25514;BMP180;48128;54.242;10.280;2023-02-08T12:02:34;103747.00;;;4.40
25514;BMP180;48128;54.242;10.280;2023-02-08T12:05:03;103717.00;;;4.30
25514;BMP180;48128;54.242;10.280;2023-02-08T12:08:03;103739.00;;;4.40
25514;BMP180;48128;54.242;10.280;2023-02-08T12:16:29;103706.00;;;4.30
25514;BMP180;48128;54.242;10.280;2023-02-08T12:21:48;103718.00;;;4.10
25514;BMP180;48128;54.242;10.280;2023-02-08T12:24:29;103710.00;;;4.10
25514;BMP180;48128;54.242;10.280;2023-02-08T12:29:42;103691.00;;;4.00
25514;BMP180;48128;54.242;10.280;2023-02-08T12:37:49;103674.00;;;4.30
25514;BMP180;48128;54.242;10.280;2023-02-08T12:49:09;103677.00;;;4.40
25514;BMP180;48128;54.242;10.280;2023-02-08T12:57:24;103655.00;;;4.40
25514;BMP180;48128;54.242;10.280;2023-02-08T13:00:04;103678.00;;;4.40
25514;BMP180;48128;54.242;10.280;2023-02-08T13:02:37;103691.00;;;4.40
25514;BMP180;48128;54.242;10.280;2023-02-08T13:05:15;103656.00;;;4.40
25514;BMP180;48128;54.242;10.280;2023-02-08T13:07:43;103645.00;;;4.50
25514;BMP180;48128;54.242;10.280;2023-02-08T13:10:19;103646.00;;;4.40
25514;BMP180;48128;54.242;10.280;2023-02-08T13:13:15;103634.00;;;4.50
25514;BMP180;48128;54.242;10.280;2023-02-08T13:16:12;103634.00;;;4.50
25514;BMP180;48128;54.242;10.280;2023-02-08T13:18:44;103631.00;;;4.40
25514;BMP180;48128;54.242;10.280;2023-02-08T13:21:24;103627.00;;;4.30
25514;BMP180;48128;54.242;10.280;2023-02-08T13:23:52;103620.00;;;4.20
25514;BMP180;48128;54.242;10.280;2023-02-08T13:26:26;103639.00;;;4.20
25514;BMP180;48128;54.242;10.280;2023-02-08T13:28:55;103626.00;;;4.30
25514;BMP180;48128;54.242;10.280;2023-02-08T13:31:27;103586.00;;;4.30
25514;BMP180;48128;54.242;10.280;2023-02-08T13:36:59;103595.00;;;4.40
25514;BMP180;48128;54.242;10.280;2023-02-08T13:39:39;103595.00;;;4.40
25514;BMP180;48128;54.242;10.280;2023-02-08T13:42:17;103607.00;;;4.40
25514;BMP180;48128;54.242;10.280;2023-02-08T13:44:51;103611.00;;;4.40
25514;BMP180;48128;54.242;10.280;2023-02-08T13:47:31;103611.00;;;4.40
25514;BMP180;48128;54.242;10.280;2023-02-08T13:50:00;103594.00;;;4.30
25514;BMP180;48128;54.242;10.280;2023-02-08T13:58:03;103557.00;;;4.40
25514;BMP180;48128;54.242;10.280;2023-02-08T14:00:35;103580.00;;;4.30
25514;BMP180;48128;54.242;10.280;2023-02-08T14:03:23;103568.00;;;4.30
25514;BMP180;48128;54.242;10.280;2023-02-08T14:09:12;103564.00;;;4.40
25514;BMP180;48128;54.242;10.280;2023-02-08T14:14:26;103530.00;;;4.40
25514;BMP180;48128;54.242;10.280;2023-02-08T14:19:31;103540.00;;;4.30
25514;BMP180;48128;54.242;10.280;2023-02-08T14:22:02;103550.00;;;4.30
25514;BMP180;48128;54.242;10.280;2023-02-08T14:24:32;103541.00;;;4.20
25514;BMP180;48128;54.242;10.280;2023-02-08T14:27:17;103515.00;;;4.20
25514;BMP180;48128;54.242;10.280;2023-02-08T14:30:19;103512.00;;;4.10
25514;BMP180;48128;54.242;10.280;2023-02-08T14:33:07;103515.00;;;4.00
25514;BMP180;48128;54.242;10.280;2023-02-08T14:35:36;103485.00;;;3.90
25514;BMP180;48128;54.242;10.280;2023-02-08T14:40:54;103487.00;;;3.80
25514;BMP180;48128;54.242;10.280;2023-02-08T14:43:38;103469.00;;;3.70
25514;BMP180;48128;54.242;10.280;2023-02-08T14:49:13;103475.00;;;3.60
25514;BMP180;48128;54.242;10.280;2023-02-08T14:51:53;103481.00;;;3.50
25514;BMP180;48128;54.242;10.280;2023-02-08T14:54:33;103476.00;;;3.50
25514;BMP180;48128;54.242;10.280;2023-02-08T14:57:05;103477.00;;;3.40
25514;BMP180;48128;54.242;10.280;2023-02-08T14:59:33;103453.00;;;3.30
25514;BMP180;48128;54.242;10.280;2023-02-08T15:02:03;103443.00;;;3.30
25514;BMP180;48128;54.242;10.280;2023-02-08T15:04:43;103441.00;;;3.20
25514;BMP180;48128;54.242;10.280;2023-02-08T15:09:41;103410.00;;;3.10
25514;BMP180;48128;54.242;10.280;2023-02-08T15:12:16;103414.00;;;3.00
25514;BMP180;48128;54.242;10.280;2023-02-08T15:14:47;103402.00;;;2.90
25514;BMP180;48128;54.242;10.280;2023-02-08T15:17:30;103397.00;;;2.80
25514;BMP180;48128;54.242;10.280;2023-02-08T15:19:59;103384.00;;;2.80
25514;BMP180;48128;54.242;10.280;2023-02-08T15:22:34;103385.00;;;2.70
25514;BMP180;48128;54.242;10.280;2023-02-08T15:25:23;103390.00;;;2.60
25514;BMP180;48128;54.242;10.280;2023-02-08T15:27:53;103384.00;;;2.60
25514;BMP180;48128;54.242;10.280;2023-02-08T15:30:23;103386.00;;;2.60
25514;BMP180;48128;54.242;10.280;2023-02-08T15:32:50;103388.00;;;2.50
25514;BMP180;48128;54.242;10.280;2023-02-08T15:35:18;103365.00;;;2.50
25514;BMP180;48128;54.242;10.280;2023-02-08T15:37:52;103348.00;;;2.50
25514;BMP180;48128;54.242;10.280;2023-02-08T15:40:29;103352.00;;;2.40
25514;BMP180;48128;54.242;10.280;2023-02-08T15:45:34;103334.00;;;2.30
25514;BMP180;48128;54.242;10.280;2023-02-08T15:48:01;103325.00;;;2.20
25514;BMP180;48128;54.242;10.280;2023-02-08T15:50:30;103336.00;;;2.20
25514;BMP180;48128;54.242;10.280;2023-02-08T15:53:00;103339.00;;;2.10
25514;BMP180;48128;54.242;10.280;2023-02-08T15:55:33;103331.00;;;2.00
25514;BMP180;48128;54.242;10.280;2023-02-08T15:58:14;103324.00;;;1.90
25514;BMP180;48128;54.242;10.280;2023-02-08T16:00:43;103306.00;;;1.90
25514;BMP180;48128;54.242;10.280;2023-02-08T16:03:19;103301.00;;;1.80
25514;BMP180;48128;54.242;10.280;2023-02-08T16:05:53;103307.00;;;1.80
25514;BMP180;48128;54.242;10.280;2023-02-08T16:08:31;103305.00;;;1.80
25514;BMP180;48128;54.242;10.280;2023-02-08T16:11:11;103292.00;;;1.70
25514;BMP180;48128;54.242;10.280;2023-02-08T16:13:40;103286.00;;;1.70
25514;BMP180;48128;54.242;10.280;2023-02-08T16:19:02;103281.00;;;1.60
25514;BMP180;48128;54.242;10.280;2023-02-08T16:21:40;103276.00;;;1.50
25514;BMP180;48128;54.242;10.280;2023-02-08T16:26:59;103256.00;;;1.40
25514;BMP180;48128;54.242;10.280;2023-02-08T16:32:33;103262.00;;;1.20
25514;BMP180;48128;54.242;10.280;2023-02-08T16:34:52;103260.00;;;1.10
25514;BMP180;48128;54.242;10.280;2023-02-08T16:37:29;103244.00;;;1.00
25514;BMP180;48128;54.242;10.280;2023-02-08T16:39:58;103238.00;;;0.90
25514;BMP180;48128;54.242;10.280;2023-02-08T16:47:39;103221.00;;;0.80